Time;durP1;ratioP1;P1;durP2;ratioP2;P2;SDS_P1;SDS_P2;PMS_P1;PMS_P2;Temp;Humidity;BMP_temperature;BMP_pressure;BME280_temperature;BME280_humidity;BME280_pressure;Samples;Min_cycle;Max_cycle;Signal;HPM_P1;HPM_P2
2022/07/16 00:02:51;;;;;;;0.93;0.70;;;13.80;65.30;13.90;100962.00;;;;4991682;28;88307;-63
2022/07/16 00:05:17;;;;;;;1.70;0.90;;;13.80;65.40;13.90;100967.00;;;;4983633;28;117580;-63
2022/07/16 00:07:43;;;;;;;1.27;0.63;;;13.80;65.40;13.90;100957.00;;;;4990445;28;88753;-63
2022/07/16 00:10:09;;;;;;;1.23;1.13;;;13.80;65.60;13.90;100954.00;;;;4982312;28;88873;-63
2022/07/16 00:12:35;;;;;;;0.73;0.57;;;13.80;66.00;13.90;100954.00;;;;4991207;28;87810;-63
2022/07/16 00:15:03;;;;;;;0.63;0.60;;;13.80;66.20;13.90;100947.00;;;;4986057;28;115813;-63
2022/07/16 00:17:29;;;;;;;1.87;0.57;;;13.80;66.30;13.90;100956.00;;;;4975652;28;88068;-63
2022/07/16 00:19:55;;;;;;;1.90;0.90;;;13.80;66.40;13.80;100949.00;;;;4994788;28;87901;-63
2022/07/16 00:22:21;;;;;;;1.83;0.77;;;13.80;66.50;13.90;100948.00;;;;4994054;28;108069;-64
2022/07/16 00:24:47;;;;;;;0.97;0.83;;;13.80;66.70;13.90;100946.00;;;;4981260;28;107681;-63
2022/07/16 00:27:12;;;;;;;0.97;0.63;;;13.80;66.80;13.90;100948.00;;;;4993879;28;115893;-64
2022/07/16 00:29:38;;;;;;;1.27;0.63;;;13.80;67.00;13.90;100948.00;;;;4975419;28;111388;-64
2022/07/16 00:32:04;;;;;;;1.83;0.67;;;13.80;67.10;13.90;100949.00;;;;4994529;28;108669;-65
2022/07/16 00:34:30;;;;;;;0.47;0.40;;;13.80;67.20;13.90;100947.00;;;;4990068;28;115948;-64
2022/07/16 00:36:55;;;;;;;1.97;0.60;;;13.80;67.20;14.00;100936.00;;;;4973564;28;116977;-64
2022/07/16 00:39:21;;;;;;;0.83;0.63;;;13.90;67.40;13.90;100945.00;;;;4979365;28;101276;-63
2022/07/16 00:41:48;;;;;;;4.70;0.73;;;13.90;67.40;14.00;100940.00;;;;4994355;28;108616;-64
2022/07/16 00:44:18;;;;;;;1.03;0.80;;;13.90;67.40;14.00;100937.00;;;;4990952;28;90774;-64
2022/07/16 00:46:45;;;;;;;1.07;0.60;;;13.90;67.50;14.00;100938.00;;;;4974217;28;88811;-63
2022/07/16 00:49:12;;;;;;;2.17;0.70;;;13.90;67.60;14.00;100934.00;;;;4988550;28;87761;-63
2022/07/16 00:51:48;;;;;;;0.87;0.40;;;13.90;67.80;14.00;100926.00;;;;4994426;28;92107;-64
2022/07/16 00:54:14;;;;;;;1.07;0.97;;;14.00;67.80;14.10;100928.00;;;;4994224;28;88008;-63
2022/07/16 00:56:40;;;;;;;0.60;0.60;;;14.00;68.00;14.10;100928.00;;;;4988877;28;119219;-63
2022/07/16 00:59:06;;;;;;;1.90;0.83;;;14.00;68.30;14.10;100920.00;;;;4981230;28;88942;-63
2022/07/16 01:01:32;;;;;;;0.87;0.57;;;14.00;68.80;14.00;100927.00;;;;4974328;28;87726;-63
2022/07/16 01:03:59;;;;;;;0.70;0.53;;;13.90;69.10;14.00;100917.00;;;;4972753;28;89041;-64
2022/07/16 01:06:24;;;;;;;3.90;0.53;;;13.90;69.70;14.00;100929.00;;;;4984796;28;87654;-64
2022/07/16 01:08:50;;;;;;;0.77;0.77;;;13.90;70.00;14.00;100920.00;;;;4992681;28;109359;-64
2022/07/16 01:11:19;;;;;;;0.63;0.63;;;13.90;70.30;14.00;100925.00;;;;4993985;28;87644;-64
2022/07/16 01:13:48;;;;;;;0.47;0.47;;;13.90;70.50;13.90;100924.00;;;;4997127;27;88461;-64
2022/07/16 01:16:14;;;;;;;1.57;0.67;;;13.90;70.70;13.90;100921.00;;;;4999144;28;90710;-63
2022/07/16 01:18:42;;;;;;;0.87;0.50;;;13.90;71.30;13.90;100920.00;;;;4997694;28;87554;-64
2022/07/16 01:21:09;;;;;;;2.07;0.50;;;13.80;71.40;13.90;100920.00;;;;4959235;28;87460;-63
2022/07/16 01:23:35;;;;;;;0.50;0.50;;;13.80;71.80;13.90;100924.00;;;;4985556;28;105499;-63
2022/07/16 01:26:01;;;;;;;0.83;0.40;;;13.80;72.40;13.90;100919.00;;;;4996011;28;102719;-63
2022/07/16 01:28:27;;;;;;;0.87;0.87;;;13.80;72.90;13.80;100919.00;;;;4965540;28;87683;-63
2022/07/16 01:30:53;;;;;;;0.30;0.30;;;14.10;73.10;13.80;100919.00;;;;4979027;28;108717;-63
2022/07/16 01:33:36;;;;;;;4.20;0.40;;;13.80;73.00;13.80;100909.00;;;;4977459;28;88118;-63
2022/07/16 01:36:12;;;;;;;0.87;0.67;;;13.80;73.40;13.80;100918.00;;;;4977754;28;100520;-63
2022/07/16 01:38:41;;;;;;;0.50;0.43;;;13.70;73.50;13.80;100917.00;;;;4992914;28;87946;-63
2022/07/16 01:41:08;;;;;;;2.50;0.70;;;13.50;73.50;13.80;100913.00;;;;4978969;28;86785;-63
2022/07/16 01:43:34;;;;;;;0.73;0.40;;;13.70;73.90;13.80;100910.00;;;;4985602;28;103540;-62
2022/07/16 01:46:00;;;;;;;0.83;0.43;;;13.70;74.10;13.70;100910.00;;;;4997555;28;88996;-62
2022/07/16 01:48:26;;;;;;;0.60;0.50;;;13.70;74.30;13.70;100913.00;;;;4990458;28;98019;-63
2022/07/16 01:50:53;;;;;;;0.50;0.50;;;13.70;74.90;13.70;100912.00;;;;4979541;28;87726;-63
2022/07/16 01:53:19;;;;;;;0.50;0.20;;;13.70;75.00;13.70;100907.00;;;;4976672;28;101767;-62
2022/07/16 01:55:45;;;;;;;1.07;0.70;;;13.60;75.20;13.70;100908.00;;;;4978264;28;88633;-62
2022/07/16 01:58:13;;;;;;;1.23;0.40;;;13.60;75.60;13.70;100897.00;;;;4987142;28;95981;-63
2022/07/16 02:00:43;;;;;;;0.53;0.53;;;13.60;76.10;13.70;100898.00;;;;4979325;28;87670;-63
2022/07/16 02:03:08;;;;;;;0.50;0.50;;;13.60;76.70;13.60;100904.00;;;;4983525;28;87972;-62
2022/07/16 02:05:35;;;;;;;0.93;0.50;;;13.60;77.30;13.60;100903.00;;;;4991977;28;113292;-62
2022/07/16 02:08:02;;;;;;;0.50;0.47;;;13.60;78.00;13.60;100897.00;;;;4996191;28;92128;-63
2022/07/16 02:10:28;;;;;;;0.60;0.40;;;13.50;78.50;13.60;100885.00;;;;4976018;28;88182;-62
2022/07/16 02:12:54;;;;;;;0.93;0.50;;;13.50;78.90;13.60;100889.00;;;;4983166;28;101570;-63
2022/07/16 02:15:19;;;;;;;1.13;0.50;;;13.50;79.10;13.60;100881.00;;;;4996637;28;88822;-63
2022/07/16 02:17:45;;;;;;;0.93;0.30;;;13.50;79.10;13.60;100875.00;;;;4997160;28;87753;-62
2022/07/16 02:20:11;;;;;;;0.87;0.60;;;13.50;79.30;13.60;100878.00;;;;4995062;28;109220;-62
2022/07/16 02:22:38;;;;;;;1.03;0.60;;;13.50;80.00;13.60;100875.00;;;;4995236;28;96399;-62
2022/07/16 02:25:06;;;;;;;0.60;0.50;;;13.50;80.90;13.60;100871.00;;;;4977038;28;87646;-62
2022/07/16 02:27:31;;;;;;;0.30;0.30;;;13.50;81.50;13.60;100869.00;;;;4976073;28;94283;-63
2022/07/16 02:29:59;;;;;;;0.33;0.33;;;13.50;81.80;13.60;100870.00;;;;4977035;28;108936;-63
2022/07/16 02:32:25;;;;;;;0.20;0.20;;;13.50;82.20;13.60;100872.00;;;;4987560;28;89171;-64
2022/07/16 02:34:51;;;;;;;3.33;0.70;;;13.50;82.50;13.60;100869.00;;;;4976143;28;104036;-64
2022/07/16 02:37:17;;;;;;;1.50;0.57;;;13.50;82.90;13.60;100870.00;;;;4974152;28;88820;-63
2022/07/16 02:39:42;;;;;;;1.60;0.83;;;13.50;83.00;13.60;100867.00;;;;4976303;28;108827;-62
2022/07/16 02:42:08;;;;;;;0.70;0.40;;;13.50;83.20;13.60;100868.00;;;;4976973;28;117742;-62
2022/07/16 02:44:34;;;;;;;0.40;0.40;;;13.50;83.50;13.60;100861.00;;;;4973878;28;99539;-62
2022/07/16 02:47:00;;;;;;;0.60;0.60;;;13.50;83.80;13.60;100858.00;;;;4994648;28;110487;-62
2022/07/16 02:49:25;;;;;;;0.97;0.57;;;13.60;84.00;13.60;100871.00;;;;4981455;28;87677;-62
2022/07/16 02:51:51;;;;;;;0.77;0.50;;;13.60;84.20;13.60;100864.00;;;;4976885;28;117473;-62
2022/07/16 02:54:17;;;;;;;0.67;0.53;;;13.60;84.10;13.60;100872.00;;;;4976296;28;117073;-62
2022/07/16 02:56:42;;;;;;;1.07;0.80;;;13.50;84.30;13.70;100862.00;;;;4976021;28;110081;-63
2022/07/16 02:59:08;;;;;;;0.73;0.30;;;13.60;84.70;13.70;100864.00;;;;4976454;28;107651;-62
2022/07/16 03:01:34;;;;;;;0.80;0.63;;;13.60;85.00;13.70;100856.00;;;;4976154;28;118408;-63
2022/07/16 03:03:59;;;;;;;0.40;0.40;;;13.60;85.20;13.70;100861.00;;;;4976845;28;118567;-62
2022/07/16 03:06:25;;;;;;;0.20;0.17;;;13.60;85.40;13.70;100862.00;;;;4988497;28;87894;-63
2022/07/16 03:08:51;;;;;;;1.27;0.50;;;13.60;85.80;13.70;100864.00;;;;4995238;28;108309;-63
2022/07/16 03:11:17;;;;;;;1.23;0.53;;;13.60;86.00;13.70;100859.00;;;;4994006;28;116388;-62
2022/07/16 03:13:43;;;;;;;1.07;0.30;;;13.60;86.10;13.70;100869.00;;;;4982734;28;116996;-63
2022/07/16 03:16:09;;;;;;;1.40;0.23;;;13.60;86.50;13.60;100850.00;;;;4975859;28;109429;-62
2022/07/16 03:18:34;;;;;;;1.20;0.87;;;13.60;86.70;13.60;100863.00;;;;4976126;28;87255;-63
2022/07/16 03:21:00;;;;;;;1.43;0.60;;;13.60;86.90;13.60;100858.00;;;;4975083;28;115894;-63
2022/07/16 03:23:26;;;;;;;0.43;0.30;;;13.50;87.20;13.60;100864.00;;;;4977903;28;88536;-63
2022/07/16 03:25:52;;;;;;;0.20;0.20;;;13.50;87.30;13.50;100859.00;;;;4994736;28;110220;-63
2022/07/16 03:28:17;;;;;;;0.20;0.20;;;13.50;87.30;13.40;100861.00;;;;4983310;28;92882;-64
2022/07/16 03:30:43;;;;;;;0.83;0.40;;;13.40;87.30;13.40;100864.00;;;;4974854;28;116852;-61
2022/07/16 03:33:09;;;;;;;0.10;0.10;;;13.40;87.70;13.30;100871.00;;;;4974674;28;117593;-64
2022/07/16 03:35:34;;;;;;;0.40;0.37;;;13.30;88.70;13.30;100868.00;;;;4975240;28;87686;-63
2022/07/16 03:40:44;;;;;;;0.77;0.67;;;13.20;90.10;13.10;100869.00;;;;4972954;28;87943;-64
2022/07/16 03:43:10;;;;;;;0.13;0.13;;;13.10;90.30;13.10;100861.00;;;;4974610;28;111782;-62
2022/07/16 03:45:35;;;;;;;0.30;0.23;;;13.10;90.50;13.00;100860.00;;;;4975816;28;87750;-63
2022/07/16 03:48:01;;;;;;;0.40;0.40;;;13.00;90.80;13.00;100856.00;;;;4975164;28;109131;-63
2022/07/16 03:50:27;;;;;;;0.93;0.67;;;13.00;90.90;13.00;100856.00;;;;4974082;28;118656;-64
2022/07/16 03:52:53;;;;;;;0.37;0.37;;;12.90;91.40;12.90;100861.00;;;;4974032;28;118987;-64
2022/07/16 03:55:18;;;;;;;0.30;0.30;;;12.90;91.50;12.90;100866.00;;;;4959706;28;110334;-64
2022/07/16 03:57:44;;;;;;;0.80;0.30;;;12.80;91.50;12.90;100863.00;;;;4974762;28;108168;-64
2022/07/16 04:00:12;;;;;;;0.17;0.10;;;12.80;91.80;12.80;100857.00;;;;4976036;28;88044;-63
2022/07/16 04:02:37;;;;;;;0.87;0.37;;;12.80;92.20;12.80;100857.00;;;;4975294;28;87733;-63
2022/07/16 04:05:04;;;;;;;2.30;0.47;;;12.80;92.40;12.80;100851.00;;;;4975497;28;100470;-63
2022/07/16 04:07:30;;;;;;;1.87;0.57;;;12.70;92.60;12.80;100852.00;;;;4975541;28;89019;-63
2022/07/16 04:09:56;;;;;;;0.50;0.40;;;12.70;92.90;12.80;100851.00;;;;4974995;28;89431;-62
2022/07/16 04:12:23;;;;;;;0.20;0.20;;;12.70;93.00;12.80;100845.00;;;;4975001;28;88747;-63
2022/07/16 04:14:50;;;;;;;0.20;0.20;;;12.80;93.20;12.90;100844.00;;;;4974413;28;97014;-64
2022/07/16 04:17:16;;;;;;;1.33;0.50;;;12.80;93.40;13.00;100853.00;;;;4974991;28;100497;-64
2022/07/16 04:19:42;;;;;;;0.60;0.60;;;12.90;93.60;13.00;100846.00;;;;4974378;28;116951;-64
2022/07/16 04:22:08;;;;;;;1.23;0.47;;;12.90;93.60;13.00;100834.00;;;;4974440;28;115692;-64
2022/07/16 04:24:34;;;;;;;0.30;0.30;;;13.00;93.60;13.10;100829.00;;;;4973698;28;100975;-62
2022/07/16 04:26:59;;;;;;;0.97;0.40;;;12.80;93.50;13.20;100829.00;;;;4976219;28;107409;-63
2022/07/16 04:29:25;;;;;;;0.47;0.47;;;13.10;93.80;13.20;100828.00;;;;4994616;28;116360;-63
2022/07/16 04:31:51;;;;;;;0.57;0.50;;;13.10;93.60;13.30;100833.00;;;;4995667;28;88093;-64
2022/07/16 04:34:17;;;;;;;0.40;0.40;;;13.20;93.70;13.40;100835.00;;;;4994061;28;109950;-63
2022/07/16 04:36:44;;;;;;;0.30;0.30;;;13.30;93.60;13.50;100827.00;;;;4994850;28;88042;-63
2022/07/16 04:39:10;;;;;;;0.40;0.40;;;13.30;93.60;13.60;100823.00;;;;4976346;28;91768;-63
2022/07/16 04:41:36;;;;;;;1.37;0.70;;;13.50;93.40;13.70;100823.00;;;;4994843;28;89673;-64
2022/07/16 04:44:01;;;;;;;1.53;0.53;;;13.60;93.30;13.80;100814.00;;;;4994152;28;109709;-63
2022/07/16 04:46:27;;;;;;;0.57;0.40;;;13.70;92.90;13.90;100819.00;;;;4986748;27;109251;-63
2022/07/16 04:48:53;;;;;;;0.30;0.30;;;13.70;92.80;14.00;100817.00;;;;4994549;27;118973;-62
2022/07/16 04:51:18;;;;;;;0.60;0.60;;;13.80;92.60;14.00;100816.00;;;;4995304;28;117280;-63
2022/07/16 04:53:44;;;;;;;0.70;0.70;;;13.90;92.60;14.10;100812.00;;;;4997220;28;109983;-64
2022/07/16 04:56:09;;;;;;;1.47;0.50;;;14.00;92.40;14.30;100812.00;;;;4998099;28;108278;-64
2022/07/16 04:58:35;;;;;;;0.63;0.40;;;14.10;92.20;14.40;100812.00;;;;4996636;28;115713;-63
2022/07/16 05:01:01;;;;;;;0.20;0.20;;;14.20;92.00;14.60;100808.00;;;;4996379;28;117457;-63
2022/07/16 05:03:27;;;;;;;0.40;0.30;;;14.40;91.70;14.70;100803.00;;;;4996983;28;100372;-63
2022/07/16 05:05:53;;;;;;;0.60;0.60;;;14.50;91.30;14.90;100807.00;;;;4997816;28;87761;-64
2022/07/16 05:08:18;;;;;;;0.60;0.50;;;14.70;90.90;15.10;100800.00;;;;4977968;28;116956;-62
2022/07/16 05:10:44;;;;;;;0.30;0.30;;;14.90;90.60;15.30;100811.00;;;;4997175;28;116469;-64
2022/07/16 05:13:10;;;;;;;0.22;0.22;;;15.10;90.20;15.50;100804.00;;;;4995814;28;87852;-63
2022/07/16 05:15:37;;;;;;;0.20;0.20;;;15.20;89.80;15.60;100805.00;;;;4996197;28;87849;-64
2022/07/16 05:18:04;;;;;;;1.48;0.45;;;15.40;88.90;15.80;100797.00;;;;4978820;28;89722;-64
2022/07/16 05:20:29;;;;;;;0.20;0.20;;;15.60;87.90;15.90;100801.00;;;;4998046;28;91515;-63
2022/07/16 05:22:56;;;;;;;0.20;0.20;;;15.70;87.40;16.00;100795.00;;;;4995788;28;87696;-64
2022/07/16 05:25:22;;;;;;;0.30;0.30;;;15.80;86.60;16.20;100796.00;;;;4979373;28;87918;-63
2022/07/16 05:27:49;;;;;;;1.70;0.47;;;16.00;86.00;16.40;100805.00;;;;4996160;28;98109;-63
2022/07/16 05:30:14;;;;;;;0.75;0.20;;;16.20;84.90;16.60;100791.00;;;;4998444;28;89485;-64
2022/07/16 05:32:42;;;;;;;1.17;0.50;;;16.30;84.00;16.80;100791.00;;;;4996607;28;104688;-63
2022/07/16 05:35:10;;;;;;;0.30;0.30;;;16.50;83.00;16.90;100798.00;;;;4998333;28;87817;-62
2022/07/16 05:37:35;;;;;;;0.15;0.15;;;16.80;81.90;17.10;100797.00;;;;4998354;28;88777;-64
2022/07/16 05:40:02;;;;;;;1.27;0.20;;;16.80;81.10;17.20;100800.00;;;;4997513;28;88070;-63
2022/07/16 05:42:28;;;;;;;0.20;0.20;;;17.00;79.80;17.30;100804.00;;;;4997561;28;87890;-63
2022/07/16 05:44:54;;;;;;;0.55;0.55;;;17.10;78.80;17.40;100793.00;;;;4997115;28;98406;-63
2022/07/16 05:47:20;;;;;;;0.40;0.40;;;17.20;78.10;17.50;100799.00;;;;4992527;28;117754;-63
2022/07/16 05:49:45;;;;;;;0.57;0.40;;;17.30;77.00;17.50;100805.00;;;;4992476;28;109648;-64
2022/07/16 05:52:11;;;;;;;0.35;0.35;;;17.30;76.40;17.60;100802.00;;;;4975050;28;110419;-64
2022/07/16 05:54:37;;;;;;;0.17;0.17;;;17.40;75.50;17.60;100808.00;;;;4992291;28;109750;-64
2022/07/16 05:57:02;;;;;;;0.90;0.30;;;17.40;75.60;17.70;100798.00;;;;4993301;28;117672;-64
2022/07/16 05:59:28;;;;;;;0.40;0.40;;;17.50;75.40;17.70;100806.00;;;;4993592;27;88152;-63
2022/07/16 06:01:54;;;;;;;1.75;0.40;;;17.50;74.60;17.70;100797.00;;;;4992313;28;111637;-64
2022/07/16 06:04:19;;;;;;;0.10;0.10;;;17.60;74.70;17.80;100800.00;;;;4993850;28;87741;-63
2022/07/16 06:06:45;;;;;;;0.30;0.30;;;17.60;74.40;17.90;100805.00;;;;4991784;28;117881;-63
2022/07/16 06:09:12;;;;;;;0.47;0.10;;;17.70;74.10;17.90;100807.00;;;;4992639;28;117003;-64
2022/07/16 06:11:38;;;;;;;2.03;0.43;;;17.70;73.10;17.90;100801.00;;;;4992819;28;87892;-64
2022/07/16 06:14:04;;;;;;;1.77;0.55;;;17.80;73.10;18.00;100809.00;;;;4992987;28;87659;-62
2022/07/16 06:16:30;;;;;;;0.13;0.13;;;17.80;72.50;18.10;100797.00;;;;4992627;28;89763;-63
2022/07/16 06:18:56;;;;;;;0.20;0.20;;;17.90;72.20;18.20;100801.00;;;;4991476;28;118647;-64
2022/07/16 06:21:21;;;;;;;1.45;0.30;;;17.90;72.20;18.20;100805.00;;;;4992524;28;110517;-64
2022/07/16 06:23:47;;;;;;;3.70;0.40;;;17.80;71.70;18.30;100810.00;;;;4992969;28;100044;-63
2022/07/16 06:26:13;;;;;;;0.60;0.60;;;18.10;71.00;18.40;100814.00;;;;4992035;28;117413;-64
2022/07/16 06:28:39;;;;;;;0.40;0.30;;;18.20;71.50;18.20;100819.00;;;;4991382;28;116769;-64
2022/07/16 06:31:04;;;;;;;0.55;0.40;;;18.10;75.10;17.80;100829.00;;;;4973947;28;100889;-63
2022/07/16 06:33:30;;;;;;;0.25;0.25;;;17.80;78.00;17.30;100827.00;;;;4992850;28;95983;-64
2022/07/16 06:35:56;;;;;;;0.52;0.50;;;17.40;79.60;16.90;100827.00;;;;4992897;28;116565;-63
2022/07/16 06:38:22;;;;;;;0.50;0.45;;;17.00;81.70;16.50;100828.00;;;;4990840;28;118604;-63
2022/07/16 06:40:47;;;;;;;0.70;0.60;;;16.70;84.80;16.10;100836.00;;;;4992619;28;88661;-64
2022/07/16 06:43:13;;;;;;;0.30;0.30;;;16.30;87.60;15.80;100836.00;;;;4992934;28;108474;-64
2022/07/16 06:45:43;;;;;;;0.50;0.47;;;16.00;90.50;15.60;100839.00;;;;4992208;28;100558;-64
2022/07/16 06:48:09;;;;;;;0.50;0.50;;;15.70;92.10;15.30;100849.00;;;;4992492;28;88765;-63
2022/07/16 06:50:34;;;;;;;0.95;0.68;;;15.50;93.50;15.10;100844.00;;;;4992786;28;87668;-64
2022/07/16 06:53:00;;;;;;;0.50;0.43;;;15.20;94.30;15.00;100846.00;;;;4991086;28;100928;-64
2022/07/16 06:55:26;;;;;;;0.38;0.30;;;15.10;95.20;15.00;100844.00;;;;4990235;28;115657;-65
2022/07/16 06:57:52;;;;;;;1.92;0.90;;;15.00;96.40;14.90;100834.00;;;;4990891;28;117598;-64
2022/07/16 07:00:18;;;;;;;0.30;0.30;;;14.90;97.40;15.00;100837.00;;;;4991538;28;111945;-65
2022/07/16 07:02:44;;;;;;;2.10;0.40;;;14.90;98.40;15.10;100839.00;;;;4992297;28;88265;-64
2022/07/16 07:05:09;;;;;;;0.45;0.40;;;15.00;98.70;15.20;100838.00;;;;4991396;28;102197;-64
2022/07/16 07:07:35;;;;;;;0.85;0.50;;;15.00;98.30;15.30;100836.00;;;;4991860;28;90055;-64
2022/07/16 07:10:01;;;;;;;0.77;0.60;;;15.20;98.20;15.50;100829.00;;;;4991341;27;109045;-64
2022/07/16 07:12:26;;;;;;;1.13;0.52;;;15.30;97.90;15.70;100822.00;;;;4990911;28;109458;-63
2022/07/16 07:14:52;;;;;;;2.58;0.95;;;15.50;97.60;16.00;100818.00;;;;4990224;28;109341;-64
2022/07/16 07:17:18;;;;;;;0.95;0.63;;;15.80;97.20;16.30;100819.00;;;;4991636;28;88182;-64
2022/07/16 07:19:43;;;;;;;0.77;0.70;;;16.00;96.80;16.60;100813.00;;;;4991679;28;109401;-63
2022/07/16 07:22:09;;;;;;;2.72;0.63;;;16.30;95.30;16.90;100801.00;;;;4983550;28;108555;-63
2022/07/16 07:24:34;;;;;;;0.70;0.52;;;16.60;94.70;17.10;100802.00;;;;4990821;28;116509;-64
2022/07/16 07:27:00;;;;;;;0.25;0.25;;;16.90;94.10;17.40;100813.00;;;;4990352;28;117414;-64
2022/07/16 07:29:26;;;;;;;0.60;0.40;;;17.10;93.30;17.60;100805.00;;;;4981880;28;109477;-64
2022/07/16 07:31:51;;;;;;;1.80;0.90;;;17.30;92.20;17.80;100807.00;;;;4984863;28;87691;-63
2022/07/16 07:34:17;;;;;;;0.65;0.30;;;17.50;91.40;17.90;100802.00;;;;4968034;28;117639;-64
2022/07/16 07:36:43;;;;;;;1.45;0.60;;;17.70;90.80;18.10;100809.00;;;;4969943;28;117067;-63
2022/07/16 07:39:09;;;;;;;0.45;0.45;;;17.80;90.10;18.30;100802.00;;;;4973976;28;110879;-64
2022/07/16 07:41:35;;;;;;;0.73;0.43;;;18.00;89.50;18.40;100793.00;;;;4973152;28;87774;-64
2022/07/16 07:44:00;;;;;;;0.30;0.30;;;18.10;88.50;18.60;100800.00;;;;4985229;28;88693;-64
2022/07/16 07:46:26;;;;;;;0.65;0.43;;;18.30;86.80;18.70;100799.00;;;;4991534;28;117203;-63
2022/07/16 07:48:52;;;;;;;0.50;0.32;;;18.40;86.80;18.80;100804.00;;;;4977371;28;87684;-64
2022/07/16 07:51:18;;;;;;;1.35;0.57;;;18.60;86.00;18.90;100805.00;;;;4992450;28;94235;-63
2022/07/16 07:53:43;;;;;;;0.40;0.30;;;18.70;83.30;19.00;100795.00;;;;4972838;28;91040;-64
2022/07/16 07:56:10;;;;;;;0.30;0.30;;;18.80;83.00;19.10;100801.00;;;;4986763;28;117296;-64
2022/07/16 07:58:37;;;;;;;0.30;0.30;;;18.80;80.60;19.00;100797.00;;;;4984703;28;87869;-64
2022/07/16 08:01:03;;;;;;;0.95;0.63;;;18.80;78.70;19.00;100803.00;;;;4953268;28;94429;-63
2022/07/16 08:03:29;;;;;;;3.83;0.40;;;18.80;78.90;19.00;100811.00;;;;4973364;28;88734;-64
2022/07/16 08:05:55;;;;;;;0.77;0.60;;;18.80;79.00;19.00;100805.00;;;;4951701;28;88720;-64
2022/07/16 08:08:21;;;;;;;0.40;0.40;;;18.80;78.40;18.90;100800.00;;;;4971200;28;111057;-63
2022/07/16 08:10:46;;;;;;;0.30;0.30;;;18.80;77.40;18.90;100809.00;;;;4991628;28;105933;-64
2022/07/16 08:13:12;;;;;;;0.65;0.30;;;18.70;76.80;18.80;100799.00;;;;4984760;28;89107;-63
2022/07/16 08:15:38;;;;;;;0.70;0.52;;;18.70;76.80;18.80;100804.00;;;;4973222;28;116438;-64
2022/07/16 08:18:04;;;;;;;0.43;0.43;;;18.70;77.00;18.80;100807.00;;;;4967884;28;88393;-63
2022/07/16 08:20:29;;;;;;;2.15;0.70;;;18.70;77.20;18.90;100804.00;;;;4974947;28;108098;-64
2022/07/16 08:22:55;;;;;;;0.55;0.30;;;18.70;77.20;18.90;100796.00;;;;4986586;27;114099;-64
2022/07/16 08:28:08;;;;;;;0.65;0.40;;;18.70;77.10;19.00;100797.00;;;;4979351;28;87575;-64
2022/07/16 08:30:33;;;;;;;0.22;0.22;;;18.80;76.80;19.00;100801.00;;;;4993865;28;110122;-64
2022/07/16 08:32:59;;;;;;;1.80;0.95;;;18.80;76.20;19.10;100801.00;;;;4993798;28;118668;-63
2022/07/16 08:35:25;;;;;;;0.32;0.20;;;18.90;75.90;19.10;100800.00;;;;4994603;28;96788;-64
2022/07/16 08:37:50;;;;;;;3.33;0.68;;;18.90;75.70;19.20;100805.00;;;;4993646;28;87800;-63
2022/07/16 08:40:20;;;;;;;0.60;0.60;;;19.00;75.50;19.30;100810.00;;;;4995648;28;88030;-63
2022/07/16 08:42:47;;;;;;;0.25;0.25;;;19.10;75.10;19.20;100810.00;;;;4994084;28;89273;-64
2022/07/16 08:45:16;;;;;;;0.30;0.30;;;19.10;75.10;19.10;100809.00;;;;4994799;28;89699;-63
2022/07/16 08:47:42;;;;;;;0.40;0.40;;;19.00;75.10;19.00;100821.00;;;;4994687;28;87917;-64
2022/07/16 08:50:13;;;;;;;0.38;0.38;;;18.90;75.00;19.00;100812.00;;;;4995131;28;87627;-64
2022/07/16 08:52:43;;;;;;;0.40;0.30;;;18.90;74.60;19.00;100821.00;;;;4992541;28;88659;-64
2022/07/16 08:55:10;;;;;;;1.25;0.55;;;18.80;74.70;19.00;100819.00;;;;4975952;28;90468;-64
2022/07/16 08:57:39;;;;;;;0.85;0.70;;;18.80;74.70;19.00;100820.00;;;;4993957;28;88253;-62
2022/07/16 09:00:11;;;;;;;0.80;0.80;;;18.80;74.80;19.00;100818.00;;;;4994381;28;87447;-64
2022/07/16 09:02:37;;;;;;;0.90;0.70;;;18.80;74.50;19.10;100820.00;;;;4994383;28;87988;-64
2022/07/16 09:05:04;;;;;;;0.35;0.35;;;18.90;74.50;19.20;100822.00;;;;4993300;28;108635;-64
2022/07/16 09:07:29;;;;;;;3.97;0.85;;;18.90;74.20;19.20;100821.00;;;;4993837;28;88683;-63
2022/07/16 09:09:55;;;;;;;0.73;0.50;;;19.00;73.60;19.20;100827.00;;;;4993750;28;108599;-63
2022/07/16 09:12:44;;;;;;;0.60;0.52;;;19.00;73.30;19.30;100831.00;;;;4993360;28;119193;-63
2022/07/16 09:15:31;;;;;;;2.92;0.82;;;19.10;73.30;19.30;100839.00;;;;4994263;28;87786;-64
2022/07/16 09:18:13;;;;;;;0.70;0.60;;;19.10;73.00;19.30;100849.00;;;;4991577;28;87966;-64
2022/07/16 09:20:47;;;;;;;2.08;0.90;;;19.10;72.90;19.30;100839.00;;;;4994866;28;87663;-64
2022/07/16 09:23:26;;;;;;;1.90;0.80;;;19.20;72.80;19.40;100844.00;;;;4993531;28;89458;-64
2022/07/16 09:26:04;;;;;;;2.95;0.47;;;19.20;72.60;19.30;100859.00;;;;4994991;28;88189;-63
2022/07/16 09:28:49;;;;;;;1.08;0.98;;;19.20;72.20;19.30;100870.00;;;;4993687;28;88019;-63
2022/07/16 09:31:41;;;;;;;0.32;0.32;;;19.20;72.00;19.20;100861.00;;;;4992925;28;87937;-64
2022/07/16 09:34:13;;;;;;;0.57;0.50;;;19.10;71.90;19.10;100857.00;;;;4992497;27;88981;-63
2022/07/16 09:36:55;;;;;;;0.57;0.40;;;19.00;73.70;19.00;100853.00;;;;4993733;28;88184;-64
2022/07/16 09:39:21;;;;;;;3.33;0.50;;;18.90;77.70;18.80;100876.00;;;;4993105;28;99692;-64
2022/07/16 09:41:47;;;;;;;0.75;0.73;;;18.80;79.30;18.70;100876.00;;;;4993060;28;109006;-64
2022/07/16 09:44:28;;;;;;;0.90;0.77;;;18.60;81.40;18.50;100891.00;;;;4973845;28;89051;-64
2022/07/16 09:47:06;;;;;;;1.00;0.57;;;18.50;84.40;18.40;100899.00;;;;4986447;28;87718;-64
2022/07/16 09:49:36;;;;;;;2.88;0.70;;;18.30;86.20;18.30;100903.00;;;;4975812;28;87687;-63
2022/07/16 09:52:04;;;;;;;1.25;0.88;;;18.20;87.60;18.30;100909.00;;;;4993801;28;87334;-64
2022/07/16 09:54:38;;;;;;;1.52;0.70;;;18.20;89.10;18.30;100908.00;;;;4994383;28;97552;-64
2022/07/16 09:57:16;;;;;;;0.75;0.73;;;18.20;90.60;18.20;100910.00;;;;4984744;28;87926;-63
2022/07/16 09:59:43;;;;;;;1.33;0.90;;;18.10;90.90;18.20;100903.00;;;;4993914;28;88803;-64
2022/07/16 10:02:08;;;;;;;0.82;0.55;;;18.10;91.40;18.10;100908.00;;;;4994009;28;87770;-63
2022/07/16 10:04:34;;;;;;;3.40;0.85;;;18.00;92.40;17.90;100899.00;;;;4992808;28;89143;-63
2022/07/16 10:07:00;;;;;;;0.50;0.50;;;17.90;94.20;17.70;100900.00;;;;4993047;28;89600;-62
2022/07/16 10:09:26;;;;;;;0.60;0.60;;;17.70;96.20;17.50;100899.00;;;;4994549;28;87901;-63
2022/07/16 10:11:54;;;;;;;1.67;0.63;;;17.50;97.30;17.50;100903.00;;;;4994172;28;87797;-62
2022/07/16 10:14:21;;;;;;;0.43;0.32;;;17.40;98.10;17.50;100892.00;;;;4993116;28;106439;-62
2022/07/16 10:16:47;;;;;;;0.52;0.52;;;17.50;98.70;17.60;100904.00;;;;4993632;28;88069;-62
2022/07/16 10:19:14;;;;;;;0.52;0.52;;;17.40;98.30;18.10;100899.00;;;;4991951;28;104093;-63
2022/07/16 10:21:41;;;;;;;1.30;0.32;;;17.70;98.60;18.60;100896.00;;;;4993727;28;87900;-63
2022/07/16 10:24:10;;;;;;;2.50;0.88;;;18.20;97.50;18.90;100896.00;;;;4974469;28;89180;-62
2022/07/16 10:26:37;;;;;;;0.30;0.22;;;18.60;96.10;19.30;100890.00;;;;4992940;28;89000;-63
2022/07/16 10:29:04;;;;;;;0.45;0.45;;;18.90;94.40;19.50;100898.00;;;;4985762;28;87997;-63
2022/07/16 10:32:27;;;;;;;0.65;0.20;;;19.20;93.90;19.80;100898.00;;;;4080152;28;10000692;-62
2022/07/16 10:34:37;;;;;;;0.43;0.43;;;19.50;92.90;20.00;100893.00;;;;4952239;28;87905;-62
2022/07/16 10:37:09;;;;;;;0.55;0.40;;;19.70;90.00;20.00;100897.00;;;;4952380;28;87850;-63
2022/07/16 10:40:03;;;;;;;0.47;0.32;;;19.80;88.70;20.00;100886.00;;;;4927933;28;89154;-63
2022/07/16 10:42:29;;;;;;;0.13;0.10;;;19.80;88.00;20.10;100883.00;;;;4952603;28;88958;-63
2022/07/16 10:44:55;;;;;;;0.43;0.30;;;19.80;87.50;20.20;100893.00;;;;4952496;28;87743;-63
2022/07/16 10:47:42;;;;;;;0.90;0.40;;;19.90;86.80;20.30;100894.00;;;;4952222;28;87939;-63
2022/07/16 10:50:19;;;;;;;0.52;0.32;;;20.10;85.50;20.50;100886.00;;;;4952187;28;89388;-63
2022/07/16 10:52:48;;;;;;;0.50;0.50;;;20.20;84.70;20.60;100889.00;;;;4952143;28;88600;-64